createdAt,value
2023-03-21T00:00:25.842Z,6.60
2023-03-21T00:01:27.455Z,6.60
2023-03-21T00:02:29.390Z,6.50
2023-03-21T00:03:32.857Z,6.50
2023-03-21T00:04:48.564Z,6.50
2023-03-21T00:05:53.734Z,6.50
2023-03-21T00:06:55.422Z,6.50
2023-03-21T00:07:56.873Z,6.40
2023-03-21T00:08:58.313Z,6.40
2023-03-21T00:10:12.368Z,6.40
2023-03-21T00:11:16.575Z,6.40
2023-03-21T00:12:20.993Z,6.40
2023-03-21T00:13:22.686Z,6.40
2023-03-21T00:14:26.060Z,6.40
2023-03-21T00:15:39.935Z,6.40
2023-03-21T00:16:50.843Z,6.50
2023-03-21T00:18:03.300Z,6.50
2023-03-21T00:19:06.226Z,6.40
2023-03-21T00:20:15.161Z,6.40
2023-03-21T00:22:05.887Z,6.40
2023-03-21T00:23:04.795Z,6.30
2023-03-21T00:24:08.004Z,6.20
2023-03-21T00:25:10.502Z,6.30
2023-03-21T00:26:12.473Z,6.20
2023-03-21T00:27:42.665Z,6.30
2023-03-21T00:28:35.659Z,6.20
2023-03-21T00:29:37.110Z,6.20
2023-03-21T00:30:40.643Z,6.20
2023-03-21T00:31:42.079Z,6.20
2023-03-21T00:32:55.195Z,6.20
2023-03-21T00:33:57.482Z,6.20
2023-03-21T00:35:16.372Z,6.20
2023-03-21T00:36:21.630Z,6.20
2023-03-21T00:37:23.102Z,6.20
2023-03-21T00:38:25.182Z,6.10
2023-03-21T00:39:26.660Z,6.10
2023-03-21T00:40:35.024Z,6.10
2023-03-21T00:41:42.907Z,6.10
2023-03-21T00:42:44.622Z,6.10
2023-03-21T00:43:46.489Z,6.10
2023-03-21T00:44:48.696Z,6.10
2023-03-21T00:45:51.326Z,6.10
2023-03-21T00:47:06.234Z,6.10
2023-03-21T00:48:10.347Z,6.00
2023-03-21T00:49:12.068Z,5.90
2023-03-21T00:50:15.992Z,6.00
2023-03-21T00:51:27.095Z,6.00
2023-03-21T00:52:40.244Z,6.00
2023-03-21T00:53:42.833Z,5.90
2023-03-21T00:54:44.591Z,6.00
2023-03-21T00:55:46.646Z,5.90
2023-03-21T00:56:49.500Z,6.00
2023-03-21T00:58:01.318Z,6.00
2023-03-21T00:59:03.860Z,5.90
2023-03-21T01:00:07.801Z,5.90
2023-03-21T01:01:10.276Z,5.90
2023-03-21T01:02:22.705Z,5.90
2023-03-21T01:03:26.498Z,5.90
2023-03-21T01:04:28.876Z,5.90
2023-03-21T01:05:51.042Z,5.90
2023-03-21T01:06:54.266Z,5.90
2023-03-21T01:07:55.906Z,5.80
2023-03-21T01:08:57.324Z,5.80
2023-03-21T01:09:58.701Z,5.80
2023-03-21T01:11:06.865Z,5.80
2023-03-21T01:12:08.363Z,5.80
2023-03-21T01:13:13.830Z,5.90
2023-03-21T01:14:22.887Z,5.90
2023-03-21T01:15:25.441Z,6.00
2023-03-21T01:16:27.561Z,5.90
2023-03-21T01:17:29.059Z,5.90
2023-03-21T01:18:30.663Z,5.90
2023-03-21T01:19:48.686Z,5.90
2023-03-21T01:20:52.570Z,5.90
2023-03-21T01:21:54.615Z,5.80
2023-03-21T01:22:55.986Z,5.80
2023-03-21T01:23:57.396Z,5.80
2023-03-21T01:25:12.021Z,5.80
2023-03-21T01:26:20.617Z,5.80
2023-03-21T01:27:22.314Z,5.80
2023-03-21T01:28:27.216Z,5.80
2023-03-21T01:29:28.876Z,5.80
2023-03-21T01:30:36.920Z,5.80
2023-03-21T01:31:41.741Z,5.70
2023-03-21T01:32:43.149Z,5.70
2023-03-21T01:33:46.649Z,5.70
2023-03-21T01:34:50.458Z,5.70
2023-03-21T01:36:03.143Z,5.70
2023-03-21T01:37:11.687Z,5.60
2023-03-21T01:38:20.503Z,5.60
2023-03-21T01:39:23.174Z,5.60
2023-03-21T01:40:27.901Z,5.50
2023-03-21T01:41:44.417Z,5.50
2023-03-21T01:42:52.535Z,5.50
2023-03-21T01:43:55.977Z,5.40
2023-03-21T01:45:07.574Z,5.50
2023-03-21T01:46:44.045Z,5.40
2023-03-21T01:54:24.721Z,5.30
2023-03-21T01:55:26.754Z,5.30
2023-03-21T01:56:37.649Z,5.30
2023-03-21T01:58:03.949Z,5.40
2023-03-21T01:59:21.463Z,5.30
2023-03-21T02:00:56.572Z,5.30
2023-03-21T02:02:24.516Z,5.20
2023-03-21T02:03:50.821Z,5.20
2023-03-21T02:05:11.089Z,5.20
2023-03-21T02:06:16.764Z,5.20
2023-03-21T02:07:31.554Z,5.20
2023-03-21T02:08:39.939Z,5.20
2023-03-21T02:09:49.337Z,5.20
2023-03-21T02:10:54.856Z,5.20
2023-03-21T02:12:11.242Z,5.20
2023-03-21T02:13:12.868Z,5.30
2023-03-21T02:14:28.301Z,5.20
2023-03-21T02:15:42.426Z,5.30
2023-03-21T02:17:12.270Z,5.20
2023-03-21T02:18:26.921Z,5.20
2023-03-21T02:19:53.049Z,5.30
2023-03-21T02:21:03.166Z,5.20
2023-03-21T02:22:39.211Z,5.30
2023-03-21T02:23:40.744Z,5.30
2023-03-21T02:25:13.383Z,5.20
2023-03-21T02:26:55.083Z,5.20
2023-03-21T02:28:16.955Z,5.20
2023-03-21T02:29:21.851Z,5.20
2023-03-21T02:30:51.338Z,5.10
2023-03-21T02:32:20.292Z,5.20
2023-03-21T02:33:44.142Z,5.20
2023-03-21T02:35:11.169Z,5.10
2023-03-21T02:36:26.698Z,5.10
2023-03-21T02:37:51.962Z,5.00
2023-03-21T02:39:23.194Z,5.00
2023-03-21T02:40:34.891Z,5.00
2023-03-21T02:41:51.514Z,5.00
2023-03-21T02:43:23.506Z,5.00
2023-03-21T02:44:42.372Z,5.00
2023-03-21T02:45:59.228Z,5.00
2023-03-21T02:47:09.459Z,5.00
2023-03-21T02:48:29.256Z,5.00
2023-03-21T02:49:44.338Z,5.00
2023-03-21T02:50:54.007Z,5.00
2023-03-21T02:52:28.633Z,5.00
2023-03-21T02:53:41.200Z,5.00
2023-03-21T02:54:48.442Z,5.00
2023-03-21T02:56:02.257Z,5.10
2023-03-21T02:57:07.022Z,5.10
2023-03-21T02:58:13.398Z,5.10
2023-03-21T02:59:22.660Z,5.10
2023-03-21T03:00:31.237Z,5.10
2023-03-21T03:01:33.389Z,5.10
2023-03-21T03:02:36.428Z,5.00
2023-03-21T03:03:39.468Z,4.90
2023-03-21T03:04:41.225Z,4.90
2023-03-21T03:05:53.673Z,5.00
2023-03-21T03:06:58.329Z,5.00
2023-03-21T03:08:14.223Z,5.00
2023-03-21T03:09:48.174Z,5.00
2023-03-21T03:11:44.041Z,4.90
2023-03-21T03:12:51.836Z,4.90
2023-03-21T03:14:31.590Z,4.90
2023-03-21T03:15:48.010Z,4.90
2023-03-21T03:16:57.476Z,4.90
2023-03-21T03:18:20.075Z,4.90
2023-03-21T03:20:16.526Z,5.00
2023-03-21T03:21:28.149Z,4.90
2023-03-21T03:22:49.153Z,4.90
2023-03-21T03:24:04.145Z,4.90
2023-03-21T03:25:21.284Z,4.90
2023-03-21T03:26:35.259Z,4.80
2023-03-21T03:27:42.057Z,4.80
2023-03-21T03:28:49.085Z,4.70
2023-03-21T03:29:52.980Z,4.70
2023-03-21T03:31:08.717Z,4.70
2023-03-21T03:32:25.764Z,4.70
2023-03-21T03:33:27.948Z,4.70
2023-03-21T03:34:34.362Z,4.70
2023-03-21T03:35:37.085Z,4.70
2023-03-21T03:36:43.316Z,4.70
2023-03-21T03:37:54.676Z,4.70
2023-03-21T03:38:57.843Z,4.80
2023-03-21T03:40:11.280Z,4.70
2023-03-21T03:41:26.604Z,4.70
2023-03-21T03:42:47.710Z,4.70
2023-03-21T03:44:00.081Z,4.70
2023-03-21T03:45:06.555Z,4.70
2023-03-21T03:46:29.851Z,4.70
2023-03-21T03:48:02.425Z,4.60
2023-03-21T03:49:17.640Z,4.70
2023-03-21T03:50:34.298Z,4.70
2023-03-21T03:51:51.102Z,4.70
2023-03-21T03:53:20.709Z,4.70
2023-03-21T03:54:33.127Z,4.80
2023-03-21T03:55:37.635Z,4.70
2023-03-21T03:56:46.062Z,4.70
2023-03-21T03:57:48.469Z,4.80
2023-03-21T03:58:50.054Z,4.80
2023-03-21T03:59:55.532Z,4.80
2023-03-21T04:01:00.652Z,4.80
2023-03-21T04:02:02.689Z,4.80
2023-03-21T04:03:07.106Z,4.80
2023-03-21T04:04:13.373Z,4.80
2023-03-21T04:05:21.570Z,4.80
2023-03-21T04:06:24.305Z,4.80
2023-03-21T04:07:27.804Z,4.80
2023-03-21T04:08:32.292Z,4.70
2023-03-21T04:09:43.750Z,4.80
2023-03-21T04:10:47.064Z,4.80
2023-03-21T04:11:48.964Z,4.80
2023-03-21T04:12:50.780Z,4.80
2023-03-21T04:14:03.061Z,4.80
2023-03-21T04:15:13.704Z,4.70
2023-03-21T04:16:20.364Z,4.70
2023-03-21T04:17:22.531Z,4.70
2023-03-21T04:18:24.560Z,4.70
2023-03-21T04:19:26.546Z,4.70
2023-03-21T04:20:36.484Z,4.80
2023-03-21T04:21:39.912Z,4.70
2023-03-21T04:22:41.388Z,4.80
2023-03-21T04:23:42.818Z,4.80
2023-03-21T04:24:44.828Z,4.80
2023-03-21T04:25:56.345Z,4.80
2023-03-21T04:27:03.991Z,4.80
2023-03-21T04:28:16.511Z,4.80
2023-03-21T04:29:22.768Z,4.80
2023-03-21T04:30:58.773Z,4.80
2023-03-21T04:32:06.231Z,4.80
2023-03-21T04:33:08.041Z,4.80
2023-03-21T04:34:12.229Z,4.80
2023-03-21T04:35:17.703Z,4.80
2023-03-21T04:36:27.783Z,4.80
2023-03-21T04:37:33.862Z,4.80
2023-03-21T04:38:37.004Z,4.80
2023-03-21T04:39:39.237Z,4.80
2023-03-21T04:40:40.749Z,4.90
2023-03-21T04:41:44.270Z,4.80
2023-03-21T04:42:47.537Z,4.80
2023-03-21T04:43:49.120Z,4.80
2023-03-21T04:44:50.893Z,4.70
2023-03-21T04:45:52.710Z,4.70
2023-03-21T04:46:54.546Z,4.70
2023-03-21T04:47:57.354Z,4.70
2023-03-21T04:48:59.726Z,4.70
2023-03-21T04:50:01.401Z,4.70
2023-03-21T04:51:02.816Z,4.70
2023-03-21T04:52:06.169Z,4.70
2023-03-21T04:53:08.600Z,4.80
2023-03-21T04:54:10.842Z,4.80
2023-03-21T04:55:12.289Z,4.70
2023-03-21T04:56:14.041Z,4.70
2023-03-21T04:57:15.873Z,4.70
2023-03-21T04:58:20.222Z,4.70
2023-03-21T04:59:21.811Z,4.70
2023-03-21T05:00:23.668Z,4.70
2023-03-21T05:01:30.433Z,4.70
2023-03-21T05:02:31.832Z,4.70
2023-03-21T05:03:39.969Z,4.70
2023-03-21T05:04:41.788Z,4.80
2023-03-21T05:05:43.460Z,4.80
2023-03-21T05:06:46.485Z,4.80
2023-03-21T05:07:50.738Z,4.80
2023-03-21T05:08:52.345Z,4.70
2023-03-21T05:09:53.842Z,4.80
2023-03-21T05:10:55.398Z,4.80
2023-03-21T05:11:59.960Z,4.80
2023-03-21T05:13:04.237Z,4.70
2023-03-21T05:14:09.622Z,4.80
2023-03-21T05:15:11.832Z,4.80
2023-03-21T05:16:13.479Z,4.70
2023-03-21T05:17:23.093Z,4.80
2023-03-21T05:18:26.245Z,4.80
2023-03-21T05:19:41.511Z,4.70
2023-03-21T05:20:43.037Z,4.70
2023-03-21T05:21:45.028Z,4.70
2023-03-21T05:22:59.515Z,4.80
2023-03-21T05:24:03.606Z,4.80
2023-03-21T05:25:09.747Z,4.80
2023-03-21T05:26:23.249Z,4.80
2023-03-21T05:27:34.993Z,4.80
2023-03-21T05:28:40.520Z,4.80
2023-03-21T05:29:43.119Z,4.80
2023-03-21T05:30:46.658Z,4.80
2023-03-21T05:31:48.291Z,4.80
2023-03-21T05:32:51.057Z,4.80
2023-03-21T05:33:53.779Z,4.80
2023-03-21T05:34:56.192Z,4.80
2023-03-21T05:35:58.128Z,4.80
2023-03-21T05:37:03.921Z,4.80
2023-03-21T05:38:17.396Z,4.70
2023-03-21T05:39:25.848Z,4.70
2023-03-21T05:40:49.637Z,4.70
2023-03-21T05:41:51.881Z,4.70
2023-03-21T05:42:53.291Z,4.70
2023-03-21T05:43:57.685Z,4.70
2023-03-21T05:44:59.167Z,4.60
2023-03-21T05:46:05.876Z,4.70
2023-03-21T05:47:08.617Z,4.80
2023-03-21T05:48:18.461Z,4.80
2023-03-21T05:49:39.752Z,4.80
2023-03-21T05:50:41.440Z,4.80
2023-03-21T05:51:51.305Z,4.90
2023-03-21T05:52:52.998Z,4.80
2023-03-21T05:53:54.523Z,4.80
2023-03-21T05:54:57.238Z,4.90
2023-03-21T05:55:59.618Z,4.90
2023-03-21T05:57:19.099Z,4.80
2023-03-21T05:58:30.633Z,4.80
2023-03-21T05:59:32.109Z,4.90
2023-03-21T06:00:34.088Z,4.90
2023-03-21T06:01:50.858Z,4.90
2023-03-21T06:02:52.406Z,4.90
2023-03-21T06:04:08.359Z,4.90
2023-03-21T06:05:11.493Z,4.90
2023-03-21T06:06:13.165Z,5.00
2023-03-21T06:07:22.080Z,5.00
2023-03-21T06:08:24.879Z,5.00
2023-03-21T06:09:27.150Z,5.10
2023-03-21T06:10:32.771Z,5.10
2023-03-21T06:11:38.932Z,5.10
2023-03-21T06:12:55.443Z,5.20
2023-03-21T06:14:03.812Z,5.20
2023-03-21T06:15:08.792Z,5.20
2023-03-21T06:16:18.917Z,5.30
2023-03-21T06:17:21.188Z,5.30
2023-03-21T06:18:28.342Z,5.30
2023-03-21T06:19:36.807Z,5.40
2023-03-21T06:20:42.369Z,5.40
2023-03-21T06:21:47.175Z,5.40
2023-03-21T06:22:48.674Z,5.50
2023-03-21T06:25:19.993Z,5.60
2023-03-21T06:26:23.144Z,5.60
2023-03-21T06:27:26.893Z,5.70
2023-03-21T06:28:30.267Z,5.70
2023-03-21T06:29:31.778Z,5.80
2023-03-21T06:30:33.306Z,5.80
2023-03-21T06:31:45.599Z,5.90
2023-03-21T06:32:47.136Z,5.90
2023-03-21T06:33:52.423Z,6.00
2023-03-21T06:34:54.077Z,5.90
2023-03-21T06:35:58.118Z,6.00
2023-03-21T06:36:59.705Z,6.00
2023-03-21T06:38:06.040Z,6.00
2023-03-21T06:39:10.546Z,6.00
2023-03-21T06:40:14.714Z,6.10
2023-03-21T06:41:17.018Z,6.10
2023-03-21T06:42:26.116Z,6.20
2023-03-21T06:43:34.223Z,6.20
2023-03-21T06:44:37.815Z,6.30
2023-03-21T06:45:46.138Z,6.30
2023-03-21T06:46:47.701Z,6.40
2023-03-21T06:47:52.551Z,6.40
2023-03-21T06:49:18.861Z,6.50
2023-03-21T06:50:20.453Z,6.50
2023-03-21T06:51:21.858Z,6.60
2023-03-21T06:52:39.720Z,6.60
2023-03-21T06:53:42.087Z,6.70
2023-03-21T06:54:56.249Z,6.80
2023-03-21T06:55:57.789Z,6.90
2023-03-21T06:56:59.336Z,6.90
2023-03-21T06:58:05.260Z,7.00
2023-03-21T06:59:08.724Z,7.00
2023-03-21T07:00:26.562Z,7.10
2023-03-21T07:01:30.567Z,7.20
2023-03-21T07:02:38.847Z,7.30
2023-03-21T07:03:45.655Z,7.30
2023-03-21T07:04:47.301Z,7.40
2023-03-21T07:05:54.143Z,7.50
2023-03-21T07:06:56.531Z,7.60
2023-03-21T07:07:57.951Z,7.60
2023-03-21T07:09:03.841Z,7.70
2023-03-21T07:10:10.338Z,7.70
2023-03-21T07:11:27.084Z,7.80
2023-03-21T07:12:28.752Z,7.80
2023-03-21T07:13:52.455Z,7.90
2023-03-21T07:14:53.985Z,8.00
2023-03-21T07:15:55.606Z,8.10
2023-03-21T07:16:58.228Z,8.10
2023-03-21T07:18:00.051Z,8.20
2023-03-21T07:19:01.710Z,8.20
2023-03-21T07:20:07.416Z,8.30
2023-03-21T07:21:09.804Z,8.40
2023-03-21T07:22:12.491Z,8.40
2023-03-21T07:23:13.911Z,8.50
2023-03-21T07:24:15.391Z,8.60
2023-03-21T07:25:17.289Z,8.60
2023-03-21T07:26:18.889Z,8.70
2023-03-21T07:27:21.341Z,8.80
2023-03-21T07:28:23.417Z,8.90
2023-03-21T07:29:25.482Z,9.00
2023-03-21T07:30:27.650Z,9.00
2023-03-21T07:31:29.577Z,9.00
2023-03-21T07:32:35.285Z,9.10
2023-03-21T07:33:37.019Z,9.10
2023-03-21T07:34:38.445Z,8.90
2023-03-21T07:35:40.449Z,8.80
2023-03-21T07:36:42.741Z,8.80
2023-03-21T07:37:44.536Z,8.70
2023-03-21T07:38:49.725Z,8.70
2023-03-21T07:39:56.402Z,8.70
2023-03-21T07:41:00.820Z,8.70
2023-03-21T07:42:05.765Z,8.80
2023-03-21T07:43:13.398Z,8.90
2023-03-21T07:44:17.358Z,8.90
2023-03-21T07:45:21.978Z,8.90
2023-03-21T07:46:23.427Z,9.00
2023-03-21T07:47:24.894Z,9.10
2023-03-21T07:48:26.807Z,9.20
2023-03-21T07:49:28.712Z,9.30
2023-03-21T07:50:30.392Z,9.40
2023-03-21T07:51:32.051Z,9.40
2023-03-21T07:52:34.039Z,9.40
2023-03-21T07:53:35.653Z,9.40
2023-03-21T07:54:37.019Z,9.40
2023-03-21T07:55:39.217Z,9.50
2023-03-21T07:56:41.594Z,9.50
2023-03-21T07:57:43.343Z,9.50
2023-03-21T07:58:45.202Z,9.50
2023-03-21T07:59:46.662Z,9.50
2023-03-21T08:00:48.856Z,9.50
2023-03-21T08:01:51.002Z,9.60
2023-03-21T08:02:58.582Z,9.70
2023-03-21T08:04:00.337Z,9.70
2023-03-21T08:05:02.097Z,9.70
2023-03-21T08:06:03.692Z,9.70
2023-03-21T08:07:05.080Z,9.80
2023-03-21T08:08:07.499Z,9.90
2023-03-21T08:09:09.509Z,9.80
2023-03-21T08:10:11.823Z,9.90
2023-03-21T08:11:13.516Z,9.90
2023-03-21T08:12:14.903Z,10.00
2023-03-21T08:13:16.288Z,10.00
2023-03-21T08:14:17.800Z,10.00
2023-03-21T08:15:19.245Z,10.10
2023-03-21T08:16:21.579Z,10.20
2023-03-21T08:17:23.045Z,10.20
2023-03-21T08:18:24.906Z,10.20
2023-03-21T08:19:27.043Z,10.20
2023-03-21T08:20:28.819Z,10.20
2023-03-21T08:21:30.506Z,10.30
2023-03-21T08:22:31.896Z,10.30
2023-03-21T08:23:33.493Z,10.40
2023-03-21T08:24:35.689Z,10.50
2023-03-21T08:25:37.526Z,10.50
2023-03-21T08:26:39.432Z,10.50
2023-03-21T08:27:45.537Z,10.60
2023-03-21T08:28:47.194Z,10.60
2023-03-21T08:29:48.572Z,10.60
2023-03-21T08:30:50.860Z,10.70
2023-03-21T08:31:52.712Z,10.70
2023-03-21T08:33:01.067Z,10.70
2023-03-21T08:34:03.299Z,10.70
2023-03-21T08:35:10.056Z,10.70
2023-03-21T08:36:11.706Z,10.70
2023-03-21T08:37:13.221Z,10.80
2023-03-21T08:38:14.728Z,10.70
2023-03-21T08:39:16.361Z,10.80
2023-03-21T08:40:19.067Z,10.70
2023-03-21T08:41:22.127Z,10.80
2023-03-21T08:42:23.653Z,10.80
2023-03-21T08:43:25.260Z,10.80
2023-03-21T08:44:26.985Z,10.80
2023-03-21T08:45:28.586Z,10.90
2023-03-21T08:46:30.736Z,10.90
2023-03-21T08:47:32.420Z,11.00
2023-03-21T08:48:34.002Z,11.10
2023-03-21T08:49:36.337Z,11.10
2023-03-21T08:50:37.767Z,11.00
2023-03-21T08:51:41.123Z,11.00
2023-03-21T08:52:42.535Z,10.90
2023-03-21T08:53:44.221Z,10.90
2023-03-21T08:54:45.798Z,11.00
2023-03-21T08:55:49.039Z,11.00
2023-03-21T08:56:50.531Z,11.10
2023-03-21T08:57:52.310Z,11.20
2023-03-21T08:58:53.853Z,11.20
2023-03-21T08:59:55.506Z,11.20
2023-03-21T09:00:57.114Z,11.30
2023-03-21T09:01:58.646Z,11.40
2023-03-21T09:03:00.279Z,11.50
2023-03-21T09:04:01.803Z,11.50
2023-03-21T09:05:04.230Z,11.50
2023-03-21T09:06:06.371Z,11.50
2023-03-21T09:07:07.924Z,11.50
2023-03-21T09:08:09.432Z,11.40
2023-03-21T09:09:12.668Z,11.40
2023-03-21T09:10:22.097Z,11.30
2023-03-21T09:11:23.985Z,11.30
2023-03-21T09:12:25.830Z,11.30
2023-03-21T09:13:27.343Z,11.20
2023-03-21T09:14:29.450Z,11.30
2023-03-21T09:15:31.812Z,11.20
2023-03-21T09:16:33.556Z,11.20
2023-03-21T09:17:36.410Z,11.20
2023-03-21T09:18:50.633Z,11.20
2023-03-21T09:19:53.330Z,11.30
2023-03-21T09:20:55.520Z,11.30
2023-03-21T09:21:57.601Z,11.40
2023-03-21T09:23:02.024Z,11.40
2023-03-21T09:24:06.730Z,11.50
2023-03-21T09:25:11.315Z,11.40
2023-03-21T09:26:13.914Z,11.40
2023-03-21T09:27:18.202Z,11.40
2023-03-21T09:28:19.713Z,11.50
2023-03-21T09:29:21.506Z,11.50
2023-03-21T09:30:26.138Z,11.60
2023-03-21T09:31:28.717Z,11.60
2023-03-21T09:32:30.761Z,11.70
2023-03-21T09:33:32.847Z,11.80
2023-03-21T09:34:34.364Z,11.90
2023-03-21T09:35:36.394Z,12.00
2023-03-21T09:36:42.033Z,11.90
2023-03-21T09:37:44.710Z,11.90
2023-03-21T09:38:47.422Z,11.90
2023-03-21T09:39:51.283Z,12.00
2023-03-21T09:41:07.716Z,12.00
2023-03-21T09:42:33.825Z,12.10
2023-03-21T09:43:44.707Z,12.10
2023-03-21T09:45:18.951Z,12.10
2023-03-21T09:46:45.661Z,12.20
2023-03-21T09:47:53.935Z,12.20
2023-03-21T09:49:17.016Z,12.10
2023-03-21T09:50:31.637Z,12.10
2023-03-21T09:51:37.974Z,12.20
2023-03-21T09:52:54.660Z,12.30
2023-03-21T09:54:00.797Z,12.40
2023-03-21T09:55:19.940Z,12.50
2023-03-21T09:56:22.122Z,12.50
2023-03-21T09:57:43.742Z,12.50
2023-03-21T09:58:53.019Z,12.50
2023-03-21T09:59:56.893Z,12.60
2023-03-21T10:01:41.389Z,12.60
2023-03-21T10:02:49.583Z,12.60
2023-03-21T10:03:51.962Z,12.70
2023-03-21T10:04:53.842Z,12.60
2023-03-21T10:06:01.443Z,12.80
2023-03-21T10:07:04.065Z,12.70
2023-03-21T10:08:16.622Z,12.80
2023-03-21T10:09:23.386Z,12.70
2023-03-21T10:10:33.101Z,12.80
2023-03-21T10:11:48.706Z,12.80
2023-03-21T10:12:51.773Z,12.80
2023-03-21T10:14:34.676Z,12.60
2023-03-21T10:15:37.349Z,12.70
2023-03-21T10:16:45.412Z,12.70
2023-03-21T10:18:00.282Z,12.70
2023-03-21T10:19:09.744Z,12.80
2023-03-21T10:20:15.808Z,12.80
2023-03-21T10:21:51.192Z,12.80
2023-03-21T10:22:47.724Z,13.00
2023-03-21T10:23:51.966Z,13.00
2023-03-21T10:24:54.176Z,13.10
2023-03-21T10:26:01.178Z,13.10
2023-03-21T10:27:04.467Z,13.00
2023-03-21T10:28:07.836Z,13.00
2023-03-21T10:29:12.506Z,13.00
2023-03-21T10:30:28.554Z,13.00
2023-03-21T10:31:31.267Z,13.10
2023-03-21T10:32:33.226Z,13.30
2023-03-21T10:33:42.896Z,13.40
2023-03-21T10:35:04.958Z,13.40
2023-03-21T10:36:11.460Z,13.50
2023-03-21T10:37:14.428Z,13.40
2023-03-21T10:38:19.213Z,13.20
2023-03-21T10:39:40.897Z,13.20
2023-03-21T10:40:42.501Z,13.20
2023-03-21T10:41:43.877Z,13.20
2023-03-21T10:42:45.297Z,13.30
2023-03-21T10:44:03.458Z,13.40
2023-03-21T10:45:15.714Z,13.50
2023-03-21T10:46:23.826Z,13.60
2023-03-21T10:47:32.210Z,13.60
2023-03-21T10:48:39.793Z,13.70
2023-03-21T10:50:05.758Z,13.80
2023-03-21T10:51:07.532Z,13.90
2023-03-21T10:52:11.953Z,14.00
2023-03-21T10:53:21.630Z,14.00
2023-03-21T10:54:28.263Z,14.00
2023-03-21T10:55:33.125Z,14.10
2023-03-21T10:56:46.363Z,14.10
2023-03-21T10:57:48.102Z,14.20
2023-03-21T10:58:50.387Z,14.30
2023-03-21T10:59:58.083Z,14.40
2023-03-21T11:01:04.000Z,14.50
2023-03-21T11:02:06.927Z,14.60
2023-03-21T11:03:43.545Z,14.70
2023-03-21T11:04:46.544Z,14.60
2023-03-21T11:05:48.919Z,14.70
2023-03-21T11:06:55.337Z,14.60
2023-03-21T11:08:06.847Z,14.70
2023-03-21T11:09:14.422Z,14.70
2023-03-21T11:10:29.185Z,14.70
2023-03-21T11:11:53.641Z,14.60
2023-03-21T11:12:57.821Z,14.70
2023-03-21T11:14:07.463Z,14.70
2023-03-21T11:15:14.963Z,14.70
2023-03-21T11:16:23.348Z,14.80
2023-03-21T11:17:30.067Z,14.70
2023-03-21T11:18:33.278Z,14.80
2023-03-21T11:19:36.477Z,15.00
2023-03-21T11:20:56.861Z,14.90
2023-03-21T11:22:00.029Z,15.00
2023-03-21T11:23:03.555Z,15.00
2023-03-21T11:24:07.602Z,15.00
2023-03-21T11:25:20.243Z,14.90
2023-03-21T11:26:36.094Z,14.90
2023-03-21T11:27:47.667Z,14.90
2023-03-21T11:28:49.169Z,15.00
2023-03-21T11:29:52.174Z,15.10
2023-03-21T11:31:01.715Z,15.20
2023-03-21T11:32:11.325Z,15.20
2023-03-21T11:33:13.075Z,15.40
2023-03-21T11:34:28.235Z,15.50
2023-03-21T11:35:36.489Z,15.60
2023-03-21T11:36:39.191Z,15.60
2023-03-21T11:37:47.020Z,15.70
2023-03-21T11:38:52.013Z,15.60
2023-03-21T11:40:06.160Z,15.60
2023-03-21T11:41:08.185Z,15.70
2023-03-21T11:42:31.279Z,15.70
2023-03-21T11:43:36.624Z,15.80
2023-03-21T11:44:44.594Z,15.80
2023-03-21T11:46:04.510Z,15.80
2023-03-21T11:47:08.605Z,15.90
2023-03-21T11:48:14.596Z,16.00
2023-03-21T11:49:16.119Z,16.20
2023-03-21T11:50:17.634Z,16.20
2023-03-21T11:51:30.275Z,16.30
2023-03-21T11:52:41.176Z,16.40
2023-03-21T11:54:15.815Z,16.60
2023-03-21T11:55:32.521Z,16.70
2023-03-21T11:56:39.473Z,16.70
2023-03-21T11:58:00.151Z,16.90
2023-03-21T11:59:27.457Z,16.90
2023-03-21T12:00:48.548Z,17.00
2023-03-21T12:02:04.093Z,17.10
2023-03-21T12:03:05.502Z,17.20
2023-03-21T12:04:20.176Z,17.10
2023-03-21T12:05:35.426Z,17.00
2023-03-21T12:06:55.282Z,17.00
2023-03-21T12:08:07.330Z,17.00
2023-03-21T12:09:46.683Z,17.00
2023-03-21T12:11:03.576Z,16.90
2023-03-21T12:12:13.482Z,16.80
2023-03-21T12:13:59.863Z,16.80
2023-03-21T12:15:27.226Z,16.90
2023-03-21T12:16:43.769Z,17.00
2023-03-21T12:18:02.636Z,17.20
2023-03-21T12:19:36.226Z,17.20
2023-03-21T12:20:42.801Z,17.20
2023-03-21T12:21:53.893Z,17.30
2023-03-21T12:23:34.312Z,17.40
2023-03-21T12:24:55.428Z,17.60
2023-03-21T12:26:23.286Z,17.80
2023-03-21T12:27:42.093Z,17.70
2023-03-21T12:29:19.271Z,17.80
2023-03-21T12:30:43.032Z,17.90
2023-03-21T12:31:53.339Z,17.90
2023-03-21T12:33:13.626Z,17.80
2023-03-21T12:34:45.030Z,17.70
2023-03-21T12:35:55.023Z,17.80
2023-03-21T12:37:15.147Z,17.80
2023-03-21T12:38:37.027Z,17.90
2023-03-21T12:39:41.620Z,17.90
2023-03-21T12:41:02.578Z,17.90
2023-03-21T12:42:38.669Z,18.10
2023-03-21T12:43:49.779Z,18.20
2023-03-21T12:45:15.846Z,18.30
2023-03-21T12:46:30.160Z,18.30
2023-03-21T12:47:34.715Z,18.30
2023-03-21T12:48:43.279Z,18.40
2023-03-21T12:49:56.699Z,18.10
2023-03-21T12:51:02.428Z,18.00
2023-03-21T12:52:18.673Z,17.90
2023-03-21T12:53:21.156Z,17.90
2023-03-21T12:54:32.078Z,17.90
2023-03-21T12:55:35.326Z,18.00
2023-03-21T12:56:54.488Z,18.10
2023-03-21T12:58:04.427Z,18.30
2023-03-21T12:59:12.466Z,18.40
2023-03-21T13:00:31.413Z,18.40
2023-03-21T13:01:34.753Z,18.30
2023-03-21T13:02:50.020Z,18.30
2023-03-21T13:04:14.465Z,18.40
2023-03-21T13:05:32.001Z,18.60
2023-03-21T13:06:35.221Z,18.70
2023-03-21T13:07:41.619Z,18.80
2023-03-21T13:09:05.294Z,18.80
2023-03-21T13:10:15.284Z,18.60
2023-03-21T13:11:23.411Z,18.50
2023-03-21T13:12:34.475Z,18.60
2023-03-21T13:13:45.753Z,18.70
2023-03-21T13:15:00.146Z,18.70
2023-03-21T13:16:24.132Z,18.60
2023-03-21T13:17:34.768Z,18.60
2023-03-21T13:18:42.393Z,18.60
2023-03-21T13:20:06.696Z,18.60
2023-03-21T13:21:39.377Z,18.60
2023-03-21T13:22:41.235Z,18.50
2023-03-21T13:23:59.024Z,18.50
2023-03-21T13:25:16.461Z,18.50
2023-03-21T13:26:18.369Z,18.40
2023-03-21T13:27:33.219Z,18.50
2023-03-21T13:28:36.286Z,18.60
2023-03-21T13:29:50.662Z,18.40
2023-03-21T13:30:53.262Z,18.30
2023-03-21T13:31:59.303Z,18.20
2023-03-21T13:33:07.244Z,18.20
2023-03-21T13:34:09.734Z,18.40
2023-03-21T13:35:38.153Z,18.40
2023-03-21T13:36:42.102Z,18.30
2023-03-21T13:37:51.696Z,18.30
2023-03-21T13:38:59.686Z,18.20
2023-03-21T13:40:10.821Z,18.00
2023-03-21T13:41:17.290Z,18.00
2023-03-21T13:42:32.086Z,17.90
2023-03-21T13:43:56.074Z,17.80
2023-03-21T13:45:00.856Z,18.00
2023-03-21T13:46:08.180Z,17.90
2023-03-21T13:47:40.637Z,18.00
2023-03-21T13:48:59.408Z,18.10
2023-03-21T13:50:24.402Z,18.20
2023-03-21T13:51:28.800Z,18.30
2023-03-21T13:52:30.745Z,18.20
2023-03-21T13:53:40.218Z,18.10
2023-03-21T13:54:51.810Z,18.00
2023-03-21T13:56:16.542Z,17.90
2023-03-21T13:57:27.057Z,17.90
2023-03-21T13:58:37.402Z,17.90
2023-03-21T13:59:43.243Z,17.90
2023-03-21T14:00:44.691Z,17.70
2023-03-21T14:01:59.253Z,17.50
2023-03-21T14:03:08.029Z,17.50
2023-03-21T14:04:12.253Z,17.30
2023-03-21T14:05:25.108Z,17.30
2023-03-21T14:06:35.344Z,17.30
2023-03-21T14:07:47.414Z,17.30
2023-03-21T14:08:49.661Z,17.30
2023-03-21T14:09:54.455Z,17.30
2023-03-21T14:10:59.637Z,17.20
2023-03-21T14:12:07.600Z,17.20
2023-03-21T14:13:16.315Z,17.30
2023-03-21T14:14:24.264Z,17.40
2023-03-21T14:15:49.760Z,17.30
2023-03-21T14:16:56.620Z,17.40
2023-03-21T14:18:10.859Z,17.40
2023-03-21T14:19:31.272Z,17.50
2023-03-21T14:20:38.872Z,17.60
2023-03-21T14:21:51.621Z,17.60
2023-03-21T14:22:53.861Z,17.60
2023-03-21T14:24:07.041Z,17.70
2023-03-21T14:25:13.764Z,17.80
2023-03-21T14:26:16.177Z,17.80
2023-03-21T14:27:19.216Z,17.80
2023-03-21T14:28:26.237Z,17.90
2023-03-21T14:29:33.054Z,18.00
2023-03-21T14:30:40.625Z,18.00
2023-03-21T14:31:42.283Z,18.10
2023-03-21T14:32:43.759Z,18.10
2023-03-21T14:33:54.149Z,18.10
2023-03-21T14:34:56.746Z,18.20
2023-03-21T14:36:06.813Z,18.20
2023-03-21T14:37:11.773Z,18.10
2023-03-21T14:38:24.572Z,18.00
2023-03-21T14:39:31.290Z,17.80
2023-03-21T14:40:33.802Z,17.70
2023-03-21T14:41:45.413Z,17.70
2023-03-21T14:42:48.648Z,17.70
2023-03-21T14:44:25.108Z,17.80
2023-03-21T14:45:29.473Z,17.90
2023-03-21T14:46:31.119Z,17.90
2023-03-21T14:47:32.799Z,17.90
2023-03-21T14:48:35.205Z,17.80
2023-03-21T14:49:37.979Z,17.80
2023-03-21T14:51:09.268Z,17.80
2023-03-21T14:52:16.138Z,17.80
2023-03-21T14:53:28.013Z,17.80
2023-03-21T14:54:31.419Z,17.60
2023-03-21T14:55:32.853Z,17.60
2023-03-21T14:56:37.316Z,17.60
2023-03-21T14:57:39.202Z,17.50
2023-03-21T14:58:44.279Z,17.40
2023-03-21T14:59:50.215Z,17.50
2023-03-21T15:00:52.761Z,17.40
2023-03-21T15:01:55.057Z,17.40
2023-03-21T15:02:59.937Z,17.50
2023-03-21T15:04:06.357Z,17.60
2023-03-21T15:05:17.598Z,17.60
2023-03-21T15:06:19.635Z,17.50